Terminal Aerodrome Forecast
Issued by NWS

Home | Current Version | Previous Version | Text Only | Print | Product List | Glossary On
Versions: 1 2 3 4 5 6 7 8 9 10 11 12 13 14 15 16 17
565
FTUS41 KBTV 261725
TAFRUT
TAF
KRUT 261725Z 2618/2718 28010KT P6SM FEW035 SCT045 BKN050
     FM270100 14005KT P6SM SKC
     FM271300 27005KT P6SM FEW060
      AMD LTD TO CLD VIS AND WIND=

USA.gov is the U.S. government's official web portal to all federal, state and local government web resources and services.